KPBF/PBF METAR and TAF weather

Enter ICAO airport designator
Station Type Date Time Source
KPBF METAR 2019/10/15 02:53 UTC NOAA

KPBF 150253Z AUTO 11005KT 10SM CLR 17/13 A3004 RMK AO2 SLP170 T01720128 51001


Station Type Date Time Source
KPBF Decoded METAR 2019/10/15 02:53 UTC NOAA

PINE BLUFF GRIDER FIELD, AR, United States (KPBF) 34-11N 091-56W 62M
Oct 14, 2019 - 10:53 PM EDT / 2019.10.15 0253 UTC
Wind: from the ESE (110 degrees) at 6 MPH (5 KT):0
Visibility: 10 mile(s):0
Sky conditions: clear
Temperature: 63.0 F (17.2 C)
Dew Point: 55.0 F (12.8 C)
Relative Humidity: 75%
Pressure (altimeter): 30.04 in. Hg (1017 hPa)
Pressure tendency: 0.00 inches (0.1 hPa) higher than three hours ago
ob: KPBF 150253Z AUTO 11005KT 10SM CLR 17/13 A3004 RMK AO2 SLP170 T01720128 51001
cycle: 3

Station Type Date Time Source
KPBF TAF 2019/10/14 18:39 UTC NOAA

TAF KPBF 141737Z 1418/1518 15006KT P6SM BKN200
FM150200 12004KT P6SM SCT100 OVC250
FM150600 VRB03KT P6SM VCSH BKN050 OVC100
FM150900 VRB02KT 3SM BR VCSH BKN015 OVC040
FM151300 13003KT 5SM -RA BR BKN010 OVC040

Example: see airport list